sensor_id;sensor_type;location;lat;lon;timestamp;pressure;altitude;pressure_sealevel;temperature;humidity
68199;BME280;55021;51.554;17.044;2023-01-25T00:13:23;102775.41;;;4.00;77.75
68199;BME280;55021;51.554;17.044;2023-01-25T00:28:25;102764.38;;;4.55;75.80
68199;BME280;55021;51.554;17.044;2023-01-25T00:43:27;102753.25;;;3.96;78.16
68199;BME280;55021;51.554;17.044;2023-01-25T01:14:11;102707.00;;;4.37;75.69
68199;BME280;55021;51.554;17.044;2023-01-25T01:29:14;102709.22;;;4.49;75.22
68199;BME280;55021;51.554;17.044;2023-01-25T01:44:18;102714.38;;;4.54;75.56
68199;BME280;55021;51.554;17.044;2023-01-25T01:59:22;102709.59;;;4.17;77.24
68199;BME280;55021;51.554;17.044;2023-01-25T02:14:28;102725.19;;;4.06;77.81
68199;BME280;55021;51.554;17.044;2023-01-25T02:29:30;102703.44;;;4.60;74.79
68199;BME280;55021;51.554;17.044;2023-01-25T02:44:33;102695.25;;;3.95;78.00
68199;BME280;55021;51.554;17.044;2023-01-25T02:59:36;102671.16;;;3.95;78.19
68199;BME280;55021;51.554;17.044;2023-01-25T03:14:38;102650.81;;;4.36;76.08
68199;BME280;55021;51.554;17.044;2023-01-25T03:29:40;102662.59;;;4.09;77.51
68199;BME280;55021;51.554;17.044;2023-01-25T03:44:43;102612.72;;;4.49;75.27
68199;BME280;55021;51.554;17.044;2023-01-25T03:59:45;102621.22;;;4.16;77.19
68199;BME280;55021;51.554;17.044;2023-01-25T04:14:47;102600.56;;;4.41;76.31
68199;BME280;55021;51.554;17.044;2023-01-25T04:29:50;102600.63;;;3.96;78.57
68199;BME280;55021;51.554;17.044;2023-01-25T04:44:52;102584.97;;;4.07;78.06
68199;BME280;55021;51.554;17.044;2023-01-25T04:59:54;102579.03;;;4.22;77.11
68199;BME280;55021;51.554;17.044;2023-01-25T05:14:57;102562.25;;;4.39;77.00
68199;BME280;55021;51.554;17.044;2023-01-25T05:30:00;102543.97;;;4.48;76.12
68199;BME280;55021;51.554;17.044;2023-01-25T05:45:02;102538.38;;;4.33;77.00
68199;BME280;55021;51.554;17.044;2023-01-25T06:00:06;102532.59;;;4.22;77.64
68199;BME280;55021;51.554;17.044;2023-01-25T06:15:10;102534.41;;;4.63;75.30
68199;BME280;55021;51.554;17.044;2023-01-25T06:30:13;102522.00;;;4.19;78.05
68199;BME280;55021;51.554;17.044;2023-01-25T06:45:15;102525.72;;;4.58;76.60
68199;BME280;55021;51.554;17.044;2023-01-25T07:00:18;102523.56;;;4.24;77.60
68199;BME280;55021;51.554;17.044;2023-01-25T07:15:20;102505.91;;;4.40;77.68
68199;BME280;55021;51.554;17.044;2023-01-25T07:30:23;102468.81;;;3.88;79.09
68199;BME280;55021;51.554;17.044;2023-01-25T07:45:25;102494.75;;;4.09;78.44
68199;BME280;55021;51.554;17.044;2023-01-25T08:00:28;102473.47;;;4.26;78.59
68199;BME280;55021;51.554;17.044;2023-01-25T08:15:30;102458.34;;;4.66;76.93
68199;BME280;55021;51.554;17.044;2023-01-25T08:30:33;102446.94;;;4.40;78.84
68199;BME280;55021;51.554;17.044;2023-01-25T08:45:35;102430.94;;;4.59;77.08
68199;BME280;55021;51.554;17.044;2023-01-25T09:00:38;102429.25;;;4.57;77.27
68199;BME280;55021;51.554;17.044;2023-01-25T09:15:41;102409.09;;;4.68;76.86
68199;BME280;55021;51.554;17.044;2023-01-25T09:30:43;102347.66;;;4.64;75.70
68199;BME280;55021;51.554;17.044;2023-01-25T09:45:46;102375.53;;;4.60;76.58
68199;BME280;55021;51.554;17.044;2023-01-25T10:00:53;102374.91;;;4.92;75.61
68199;BME280;55021;51.554;17.044;2023-01-25T10:16:03;102378.94;;;4.63;76.72
68199;BME280;55021;51.554;17.044;2023-01-25T10:31:15;102336.22;;;4.97;75.61
68199;BME280;55021;51.554;17.044;2023-01-25T10:46:21;102329.59;;;5.23;74.49
68199;BME280;55021;51.554;17.044;2023-01-25T11:01:27;102311.75;;;5.41;74.14
68199;BME280;55021;51.554;17.044;2023-01-25T11:16:37;102287.91;;;5.35;74.40
68199;BME280;55021;51.554;17.044;2023-01-25T11:31:43;102247.88;;;4.94;75.58
68199;BME280;55021;51.554;17.044;2023-01-25T11:46:55;102214.44;;;5.01;74.00
68199;BME280;55021;51.554;17.044;2023-01-25T12:02:18;102189.50;;;4.99;75.36
68199;BME280;55021;51.554;17.044;2023-01-25T12:17:36;102165.84;;;5.25;73.54
68199;BME280;55021;51.554;17.044;2023-01-25T12:32:48;102113.16;;;5.06;72.26
68199;BME280;55021;51.554;17.044;2023-01-25T12:47:55;102115.06;;;5.22;74.02
68199;BME280;55021;51.554;17.044;2023-01-25T13:03:11;102106.91;;;5.40;73.31
68199;BME280;55021;51.554;17.044;2023-01-25T13:18:36;102090.97;;;5.20;74.12
68199;BME280;55021;51.554;17.044;2023-01-25T13:33:39;102063.53;;;5.15;74.67
68199;BME280;55021;51.554;17.044;2023-01-25T13:49:02;102053.34;;;5.22;73.86
68199;BME280;55021;51.554;17.044;2023-01-25T14:04:06;102015.50;;;4.93;73.85
68199;BME280;55021;51.554;17.044;2023-01-25T14:19:21;102013.13;;;5.04;74.27
68199;BME280;55021;51.554;17.044;2023-01-25T14:34:25;102006.75;;;4.73;75.81
68199;BME280;55021;51.554;17.044;2023-01-25T14:49:28;101984.81;;;4.82;75.49
68199;BME280;55021;51.554;17.044;2023-01-25T15:04:30;101964.03;;;4.70;76.24
68199;BME280;55021;51.554;17.044;2023-01-25T15:19:33;101916.88;;;4.83;75.47
68199;BME280;55021;51.554;17.044;2023-01-25T15:34:35;101925.72;;;5.00;75.62
68199;BME280;55021;51.554;17.044;2023-01-25T15:49:37;101921.72;;;4.92;76.26
68199;BME280;55021;51.554;17.044;2023-01-25T16:04:40;101865.78;;;4.69;75.68
68199;BME280;55021;51.554;17.044;2023-01-25T16:19:43;101880.38;;;4.80;76.62
68199;BME280;55021;51.554;17.044;2023-01-25T16:34:45;101877.13;;;4.74;76.93
68199;BME280;55021;51.554;17.044;2023-01-25T16:49:47;101856.75;;;4.87;76.74
68199;BME280;55021;51.554;17.044;2023-01-25T17:04:50;101836.09;;;4.89;76.63
68199;BME280;55021;51.554;17.044;2023-01-25T17:19:52;101817.25;;;5.06;76.26
68199;BME280;55021;51.554;17.044;2023-01-25T17:34:54;101793.88;;;4.77;77.54
68199;BME280;55021;51.554;17.044;2023-01-25T17:49:57;101800.53;;;4.85;76.96
68199;BME280;55021;51.554;17.044;2023-01-25T18:04:59;101780.41;;;4.94;76.21
68199;BME280;55021;51.554;17.044;2023-01-25T18:20:02;101763.78;;;4.72;77.44
68199;BME280;55021;51.554;17.044;2023-01-25T18:35:05;101759.50;;;4.68;77.53
68199;BME280;55021;51.554;17.044;2023-01-25T18:50:31;101732.47;;;4.72;77.66
68199;BME280;55021;51.554;17.044;2023-01-25T19:05:34;101678.13;;;4.37;77.61
68199;BME280;55021;51.554;17.044;2023-01-25T19:20:38;101708.69;;;4.66;78.08
68199;BME280;55021;51.554;17.044;2023-01-25T19:35:40;101674.59;;;4.84;77.13
68199;BME280;55021;51.554;17.044;2023-01-25T19:50:43;101656.88;;;4.81;77.76
68199;BME280;55021;51.554;17.044;2023-01-25T20:05:46;101636.47;;;4.79;78.20
68199;BME280;55021;51.554;17.044;2023-01-25T20:20:58;101605.94;;;4.81;77.40
68199;BME280;55021;51.554;17.044;2023-01-25T20:36:03;101600.97;;;4.75;77.45
68199;BME280;55021;51.554;17.044;2023-01-25T20:51:07;101600.09;;;4.75;77.83
68199;BME280;55021;51.554;17.044;2023-01-25T21:06:10;101578.81;;;4.72;77.73
68199;BME280;55021;51.554;17.044;2023-01-25T21:21:14;101566.50;;;4.38;78.69
68199;BME280;55021;51.554;17.044;2023-01-25T21:36:18;101573.28;;;4.75;78.36
68199;BME280;55021;51.554;17.044;2023-01-25T21:51:20;101524.03;;;4.46;78.52
68199;BME280;55021;51.554;17.044;2023-01-25T22:06:23;101553.56;;;4.15;80.24
68199;BME280;55021;51.554;17.044;2023-01-25T22:21:27;101524.97;;;4.61;78.69
68199;BME280;55021;51.554;17.044;2023-01-25T22:36:30;101513.03;;;4.66;78.41
68199;BME280;55021;51.554;17.044;2023-01-25T22:51:33;101494.50;;;4.77;77.44
68199;BME280;55021;51.554;17.044;2023-01-25T23:06:35;101485.19;;;4.69;77.89
68199;BME280;55021;51.554;17.044;2023-01-25T23:21:39;101470.50;;;4.60;78.79
68199;BME280;55021;51.554;17.044;2023-01-25T23:36:42;101452.16;;;4.68;78.09
68199;BME280;55021;51.554;17.044;2023-01-25T23:51:44;101441.03;;;4.60;78.10
